Webcam mot vest more information Webcam facing west


BeaufortBeaufort


Du finner stasjonens værinfo også på:

European Weather Network

WeatherCloud

Weather Underground

HAMweather, WeatherForYou, PWS Weather


Programvare vi bruker:

Weather Display

Leuven-Template 2.8

One.com

Værrapport fra de nærmeste flyplassene

   
ENEV - Evenes Lufthavn, (Harstad, Narvik), Norway
Oppdatert: 22-07-2018 19:50
For det meste Overskyet  
For det meste Overskyet  
   Vind vester√•len: varierende 1 m/s
Vind vesterålen: varierende 1 m/s
Temperatur: 17°C
Duggpunkt: 12°C
Luftfuktighet: 73%
Lufttrykk: 1005 hPa
Skyer: For det meste Overskyet
Sikt: Mer enn 10 km
Detaljer skyer: Noen skyer 1188.7 m,
For det meste Overskyet 1737.4 m
ENEV 221750Z VRB02KT 9999 FEW039 BKN057 17/12 Q1005 RMK WIND 1400FT 23008KT
ENSK - Stokmarknes Lufthavn, VesterŚlen,Norway
Oppdatert: 22-07-2018 19:50
Noen skyer  
Noen skyer  
   Vind vester√•len: varierende 0.5 m/s
Vind vesterålen: varierende 0.5 m/s
Temperatur: 16°C
Duggpunkt: 12°C
Luftfuktighet: 77%
Lufttrykk: 1005 hPa
Skyer: Noen skyer
Sikt: Mer enn 10 km
Detaljer skyer: Noen skyer 914.4 m
ENSK 221750Z VRB01KT 9999 FEW030 16/12 Q1005
ENAN - Andenes Lufthavn, VesterŚlen, Norway
Oppdatert: 22-07-2018 20:20
Noen skyer  
Noen skyer  
   Vind vester√•len: √ėN√ė 1.5 m/s
Vind vester√•len: √ėN√ė 1.5 m/s
Temperatur: 13°C
Duggpunkt: 11°C
Luftfuktighet: 88%
Lufttrykk: 1005 hPa
Skyer: Noen skyer
Sikt: Mer enn 10 km
Detaljer skyer: Noen skyer 1463 m
ENAN 221820Z 07003KT 9999 FEW048 13/11 Q1005
ENLK - Leknes Lufthavn, Lofoten, Norway
Oppdatert: 22-07-2018 20:20
Noen skyer  
Noen skyer  
   Vind vester√•len: S√łr 4.1 m/s
Vind vester√•len: S√łr 4.1 m/s
Temperatur: 14°C
Duggpunkt: 12°C
Luftfuktighet: 88%
Lufttrykk: 1005 hPa
Skyer: Noen skyer
Sikt: Mer enn 10 km
Detaljer skyer: Noen skyer 518.2 m
ENLK 221820Z 17008KT 9999 FEW017 14/12 Q1005
ENSH - Svolvśr, Helle, Lofoten, Norway
Oppdatert: 22-07-2018 19:50
Klart  
Klart  
   Vind vester√•len: SSV 3.6 m/s
Vind vesterålen: SSV 3.6 m/s
Temperatur: 14°C
Duggpunkt: 11°C
Luftfuktighet: 82%
Lufttrykk: 1005 hPa
Sikt: Mer enn 10 km
Detaljer skyer: Klart
ENSH 221750Z 20007KT CAVOK 14/11 Q1005 RMK WIND 150FT 18008KT
ENBO - BodÝ Lufthavn, Norway
Oppdatert: 22-07-2018 20:20
For det meste Overskyet  
For det meste Overskyet  
   Vind vester√•len: NV 1 m/s
Vind vesterålen: NV 1 m/s
Temperatur: 15°C
Duggpunkt: 11°C
Luftfuktighet: 77%
Lufttrykk: 1006 hPa
Skyer: For det meste Overskyet
Sikt: Mer enn 10 km
Detaljer skyer: Noen skyer 548.6 m,
Partly Cloudy 2438.4 m,
For det meste Overskyet 6096 m
ENBO 221820Z 32002KT 9999 FEW018 SCT080 BKN200 15/11 Q1006 NOSIG

Script utviklet av  Saratoga-weather.org Tilpasset for tamplaten av  Weerstation Leuven